GEML

Details ICAO GEML (MLN)
Name MELILLA
Region Ceuta and Melilla
Timezone Africa/Casablanca (UTC+0.0)
Plans Departing 50
Arriving 48
Stats Elevation 156 ft / 48 m (AMSL)
Location 35.280374° -2.956708°
Runways 1
Magnetic Variation 0.454° W
Sunrise 2017-12-13 07:13:16 UTC / 2017-12-13 07:13:16 Local
Sunset 2017-12-13 17:01:38 UTC / 2017-12-13 17:01:38 Local
Advertisement - Login to hide

Runways

ID Width Length Bearing (true) Bearing (mag) Surface Threshold Offset Overrun Length
15 148 ft / 45 m 4,811 ft / 1,466 m 146.39° 146.84° Asphalt 755 ft / 230 m 0 ft / 0 m
33 148 ft / 45 m 4,811 ft / 1,466 m 326.40° 326.85° Asphalt 0 ft / 0 m 0 ft / 0 m

Map

Weather


0- 5 10 15 20 25 30 35+ Temperature / ° C

Clouds and Precipitation
Forecast for 2017-12-13 12:00 UTC. Updated 4 minutes ago

Ground ~20,000 ft ~40,000 ft Winds

METAR

GEML 130700Z 27002KT CAVOK 06/05 Q1027

TAF

TAF GEML 130200Z 1303/1403 VRB02KT CAVOK TX16/1313Z TN06/1306Z BECMG 1310/1312 09010KT

Frequencies

Ground 121.70 MHz GND
Tower 118.50 MHz TWR
Warning: Do not use this data for real-world aviation or navigation. No guarantee of current accuracy is given.